sensor_id;sensor_type;location;lat;lon;timestamp;pressure;altitude;pressure_sealevel;temperature
72278;BMP280;61204;49.980;8.358;2023-03-12T00:00:51;100271.88;;;-1.91
72278;BMP280;61204;49.980;8.358;2023-03-12T00:03:16;100264.78;;;-1.89
72278;BMP280;61204;49.980;8.358;2023-03-12T00:05:42;100274.56;;;-1.86
72278;BMP280;61204;49.980;8.358;2023-03-12T00:08:09;100276.75;;;-1.90
72278;BMP280;61204;49.980;8.358;2023-03-12T00:10:36;100287.75;;;-1.99
72278;BMP280;61204;49.980;8.358;2023-03-12T00:13:04;100289.97;;;-2.03
72278;BMP280;61204;49.980;8.358;2023-03-12T00:15:30;100284.34;;;-2.05
72278;BMP280;61204;49.980;8.358;2023-03-12T00:17:55;100287.53;;;-2.12
72278;BMP280;61204;49.980;8.358;2023-03-12T00:20:21;100287.78;;;-2.22
72278;BMP280;61204;49.980;8.358;2023-03-12T00:22:50;100285.59;;;-2.29
72278;BMP280;61204;49.980;8.358;2023-03-12T00:25:15;100292.91;;;-2.35
72278;BMP280;61204;49.980;8.358;2023-03-12T00:27:45;100294.84;;;-2.41
72278;BMP280;61204;49.980;8.358;2023-03-12T00:30:10;100291.91;;;-2.43
72278;BMP280;61204;49.980;8.358;2023-03-12T00:32:38;100278.97;;;-2.33
72278;BMP280;61204;49.980;8.358;2023-03-12T00:35:04;100280.22;;;-2.34
72278;BMP280;61204;49.980;8.358;2023-03-12T00:37:30;100286.53;;;-2.32
72278;BMP280;61204;49.980;8.358;2023-03-12T00:39:57;100271.41;;;-2.07
72278;BMP280;61204;49.980;8.358;2023-03-12T00:42:25;100269.91;;;-1.91
72278;BMP280;61204;49.980;8.358;2023-03-12T00:44:51;100273.81;;;-1.81
72278;BMP280;61204;49.980;8.358;2023-03-12T00:47:17;100270.88;;;-1.77
72278;BMP280;61204;49.980;8.358;2023-03-12T00:49:42;100269.66;;;-1.76
72278;BMP280;61204;49.980;8.358;2023-03-12T00:52:08;100268.63;;;-1.67
72278;BMP280;61204;49.980;8.358;2023-03-12T00:54:33;100274.75;;;-1.67
72278;BMP280;61204;49.980;8.358;2023-03-12T00:56:58;100273.53;;;-1.72
72278;BMP280;61204;49.980;8.358;2023-03-12T00:59:24;100272.59;;;-1.74
72278;BMP280;61204;49.980;8.358;2023-03-12T01:01:49;100276.75;;;-1.79
72278;BMP280;61204;49.980;8.358;2023-03-12T01:04:17;100273.81;;;-1.81
72278;BMP280;61204;49.980;8.358;2023-03-12T01:06:42;100264.06;;;-1.84
72278;BMP280;61204;49.980;8.358;2023-03-12T01:09:08;100270.66;;;-1.85
72278;BMP280;61204;49.980;8.358;2023-03-12T01:11:37;100260.88;;;-1.88
72278;BMP280;61204;49.980;8.358;2023-03-12T01:14:03;100263.81;;;-1.91
72278;BMP280;61204;49.980;8.358;2023-03-12T01:16:32;100273.56;;;-1.94
72278;BMP280;61204;49.980;8.358;2023-03-12T01:18:58;100257.44;;;-1.94
72278;BMP280;61204;49.980;8.358;2023-03-12T01:21:26;100253.31;;;-1.95
72278;BMP280;61204;49.980;8.358;2023-03-12T01:23:53;100255.75;;;-1.97
72278;BMP280;61204;49.980;8.358;2023-03-12T01:26:20;100258.72;;;-2.01
72278;BMP280;61204;49.980;8.358;2023-03-12T01:28:46;100261.13;;;-1.97
72278;BMP280;61204;49.980;8.358;2023-03-12T01:31:13;100258.19;;;-1.94
72278;BMP280;61204;49.980;8.358;2023-03-12T01:33:42;100252.81;;;-1.88
72278;BMP280;61204;49.980;8.358;2023-03-12T01:36:18;100257.44;;;-1.88
72278;BMP280;61204;49.980;8.358;2023-03-12T01:38:51;100264.56;;;-1.85
72278;BMP280;61204;49.980;8.358;2023-03-12T01:41:20;100264.78;;;-1.83
72278;BMP280;61204;49.980;8.358;2023-03-12T01:43:50;100264.31;;;-1.82
72278;BMP280;61204;49.980;8.358;2023-03-12T01:51:58;100268.94;;;-1.82
72278;BMP280;61204;49.980;8.358;2023-03-12T01:54:26;100263.56;;;-1.82
72278;BMP280;61204;49.980;8.358;2023-03-12T01:57:05;100266.25;;;-1.82
72278;BMP280;61204;49.980;8.358;2023-03-12T01:59:36;100267.00;;;-1.82
72278;BMP280;61204;49.980;8.358;2023-03-12T02:02:07;100258.94;;;-1.82
72278;BMP280;61204;49.980;8.358;2023-03-12T02:04:34;100260.38;;;-1.81
72278;BMP280;61204;49.980;8.358;2023-03-12T02:07:04;100257.44;;;-1.77
72278;BMP280;61204;49.980;8.358;2023-03-12T02:09:42;100245.47;;;-1.76
72278;BMP280;61204;49.980;8.358;2023-03-12T02:12:12;100250.81;;;-1.71
72278;BMP280;61204;49.980;8.358;2023-03-12T02:14:38;100239.56;;;-1.69
72278;BMP280;61204;49.980;8.358;2023-03-12T02:17:04;100240.56;;;-1.66
72278;BMP280;61204;49.980;8.358;2023-03-12T02:19:41;100240.75;;;-1.59
72278;BMP280;61204;49.980;8.358;2023-03-12T02:22:14;100242.44;;;-1.56
72278;BMP280;61204;49.980;8.358;2023-03-12T02:27:27;100240.22;;;-1.52
72278;BMP280;61204;49.980;8.358;2023-03-12T02:29:57;100247.81;;;-1.50
72278;BMP280;61204;49.980;8.358;2023-03-12T02:32:25;100248.53;;;-1.50
72278;BMP280;61204;49.980;8.358;2023-03-12T02:34:55;100245.13;;;-1.50
72278;BMP280;61204;49.980;8.358;2023-03-12T02:37:21;100250.50;;;-1.50
72278;BMP280;61204;49.980;8.358;2023-03-12T02:40:32;100252.69;;;-1.49
72278;BMP280;61204;49.980;8.358;2023-03-12T02:42:46;100249.25;;;-1.49
72278;BMP280;61204;49.980;8.358;2023-03-12T02:45:12;100243.41;;;-1.48
72278;BMP280;61204;49.980;8.358;2023-03-12T02:47:38;100243.13;;;-1.44
72278;BMP280;61204;49.980;8.358;2023-03-12T02:50:03;100237.47;;;-1.40
72278;BMP280;61204;49.980;8.358;2023-03-12T02:52:30;100234.53;;;-1.37
72278;BMP280;61204;49.980;8.358;2023-03-12T02:55:00;100229.16;;;-1.37
72278;BMP280;61204;49.980;8.358;2023-03-12T02:57:28;100221.34;;;-1.35
72278;BMP280;61204;49.980;8.358;2023-03-12T02:59:54;100229.91;;;-1.31
72278;BMP280;61204;49.980;8.358;2023-03-12T03:02:19;100223.28;;;-1.30
72278;BMP280;61204;49.980;8.358;2023-03-12T03:04:45;100222.06;;;-1.29
72278;BMP280;61204;49.980;8.358;2023-03-12T03:07:11;100223.00;;;-1.26
72278;BMP280;61204;49.980;8.358;2023-03-12T03:09:39;100221.06;;;-1.26
72278;BMP280;61204;49.980;8.358;2023-03-12T03:12:05;100220.56;;;-1.24
72278;BMP280;61204;49.980;8.358;2023-03-12T03:14:31;100227.91;;;-1.25
72278;BMP280;61204;49.980;8.358;2023-03-12T03:16:56;100227.41;;;-1.23
72278;BMP280;61204;49.980;8.358;2023-03-12T03:19:22;100229.59;;;-1.22
72278;BMP280;61204;49.980;8.358;2023-03-12T03:21:48;100231.78;;;-1.20
72278;BMP280;61204;49.980;8.358;2023-03-12T03:24:13;100224.44;;;-1.19
72278;BMP280;61204;49.980;8.358;2023-03-12T03:26:41;100227.88;;;-1.19
72278;BMP280;61204;49.980;8.358;2023-03-12T03:29:08;100221.25;;;-1.18
72278;BMP280;61204;49.980;8.358;2023-03-12T03:31:33;100231.03;;;-1.15
72278;BMP280;61204;49.980;8.358;2023-03-12T03:33:59;100232.00;;;-1.12
72278;BMP280;61204;49.980;8.358;2023-03-12T03:36:24;100223.19;;;-1.13
72278;BMP280;61204;49.980;8.358;2023-03-12T03:38:50;100227.84;;;-1.13
72278;BMP280;61204;49.980;8.358;2023-03-12T03:41:17;100223.19;;;-1.13
72278;BMP280;61204;49.980;8.358;2023-03-12T03:43:44;100218.28;;;-1.14
72278;BMP280;61204;49.980;8.358;2023-03-12T03:46:11;100230.28;;;-1.15
72278;BMP280;61204;49.980;8.358;2023-03-12T03:48:38;100222.22;;;-1.15
72278;BMP280;61204;49.980;8.358;2023-03-12T03:51:06;100211.47;;;-1.15
72278;BMP280;61204;49.980;8.358;2023-03-12T03:53:38;100215.38;;;-1.16
72278;BMP280;61204;49.980;8.358;2023-03-12T03:56:05;100208.56;;;-1.17
72278;BMP280;61204;49.980;8.358;2023-03-12T03:58:40;100223.22;;;-1.18
72278;BMP280;61204;49.980;8.358;2023-03-12T04:01:08;100223.22;;;-1.18
72278;BMP280;61204;49.980;8.358;2023-03-12T04:03:37;100235.22;;;-1.19
72278;BMP280;61204;49.980;8.358;2023-03-12T04:06:03;100235.94;;;-1.19
72278;BMP280;61204;49.980;8.358;2023-03-12T04:08:30;100226.16;;;-1.16
72278;BMP280;61204;49.980;8.358;2023-03-12T04:10:59;100231.28;;;-1.13
72278;BMP280;61204;49.980;8.358;2023-03-12T04:13:35;100221.91;;;-1.06
72278;BMP280;61204;49.980;8.358;2023-03-12T04:16:01;100215.81;;;-1.07
72278;BMP280;61204;49.980;8.358;2023-03-12T04:18:27;100214.59;;;-1.06
72278;BMP280;61204;49.980;8.358;2023-03-12T04:20:53;100218.00;;;-1.05
72278;BMP280;61204;49.980;8.358;2023-03-12T04:23:18;100214.31;;;-1.02
72278;BMP280;61204;49.980;8.358;2023-03-12T04:25:44;100212.03;;;-0.92
72278;BMP280;61204;49.980;8.358;2023-03-12T04:28:09;100215.19;;;-0.88
72278;BMP280;61204;49.980;8.358;2023-03-12T04:30:35;100219.13;;;-0.95
72278;BMP280;61204;49.980;8.358;2023-03-12T04:33:02;100227.72;;;-0.97
72278;BMP280;61204;49.980;8.358;2023-03-12T04:35:29;100222.81;;;-0.92
72278;BMP280;61204;49.980;8.358;2023-03-12T04:37:55;100218.88;;;-0.91
72278;BMP280;61204;49.980;8.358;2023-03-12T04:40:20;100214.25;;;-0.91
72278;BMP280;61204;49.980;8.358;2023-03-12T04:42:48;100220.34;;;-0.90
72278;BMP280;61204;49.980;8.358;2023-03-12T04:45:14;100214.47;;;-0.89
72278;BMP280;61204;49.980;8.358;2023-03-12T04:47:39;100209.78;;;-0.83
72278;BMP280;61204;49.980;8.358;2023-03-12T04:50:05;100208.53;;;-0.82
72278;BMP280;61204;49.980;8.358;2023-03-12T04:52:32;100205.78;;;-0.76
72278;BMP280;61204;49.980;8.358;2023-03-12T04:54:57;100204.06;;;-0.74
72278;BMP280;61204;49.980;8.358;2023-03-12T04:57:25;100200.09;;;-0.67
72278;BMP280;61204;49.980;8.358;2023-03-12T04:59:51;100193.72;;;-0.64
72278;BMP280;61204;49.980;8.358;2023-03-12T05:02:17;100196.34;;;-0.58
72278;BMP280;61204;49.980;8.358;2023-03-12T05:04:42;100197.81;;;-0.57
72278;BMP280;61204;49.980;8.358;2023-03-12T05:07:08;100203.19;;;-0.57
72278;BMP280;61204;49.980;8.358;2023-03-12T05:09:33;100201.91;;;-0.51
72278;BMP280;61204;49.980;8.358;2023-03-12T05:11:59;100204.59;;;-0.51
72278;BMP280;61204;49.980;8.358;2023-03-12T05:14:24;100205.13;;;-0.52
72278;BMP280;61204;49.980;8.358;2023-03-12T05:16:50;100199.72;;;-0.52
72278;BMP280;61204;49.980;8.358;2023-03-12T05:19:15;100198.16;;;-0.42
72278;BMP280;61204;49.980;8.358;2023-03-12T05:21:43;100205.75;;;-0.40
72278;BMP280;61204;49.980;8.358;2023-03-12T05:24:09;100195.69;;;-0.40
72278;BMP280;61204;49.980;8.358;2023-03-12T05:26:35;100199.19;;;-0.45
72278;BMP280;61204;49.980;8.358;2023-03-12T05:29:03;100209.94;;;-0.45
72278;BMP280;61204;49.980;8.358;2023-03-12T05:31:30;100200.84;;;-0.42
72278;BMP280;61204;49.980;8.358;2023-03-12T05:33:59;100192.75;;;-0.42
72278;BMP280;61204;49.980;8.358;2023-03-12T05:36:26;100192.56;;;-0.44
72278;BMP280;61204;49.980;8.358;2023-03-12T05:38:52;100197.22;;;-0.44
72278;BMP280;61204;49.980;8.358;2023-03-12T05:41:19;100192.75;;;-0.42
72278;BMP280;61204;49.980;8.358;2023-03-12T05:43:49;100191.75;;;-0.39
72278;BMP280;61204;49.980;8.358;2023-03-12T05:46:17;100184.91;;;-0.40
72278;BMP280;61204;49.980;8.358;2023-03-12T05:48:45;100187.63;;;-0.40
72278;BMP280;61204;49.980;8.358;2023-03-12T05:51:10;100187.84;;;-0.38
72278;BMP280;61204;49.980;8.358;2023-03-12T05:53:36;100179.97;;;-0.36
72278;BMP280;61204;49.980;8.358;2023-03-12T05:56:05;100182.47;;;-0.38
72278;BMP280;61204;49.980;8.358;2023-03-12T05:58:38;100179.53;;;-0.40
72278;BMP280;61204;49.980;8.358;2023-03-12T06:01:16;100175.38;;;-0.41
72278;BMP280;61204;49.980;8.358;2023-03-12T06:03:45;100168.75;;;-0.40
72278;BMP280;61204;49.980;8.358;2023-03-12T06:06:11;100162.13;;;-0.39
72278;BMP280;61204;49.980;8.358;2023-03-12T06:08:38;100170.94;;;-0.38
72278;BMP280;61204;49.980;8.358;2023-03-12T06:11:04;100173.34;;;-0.35
72278;BMP280;61204;49.980;8.358;2023-03-12T06:13:30;100182.66;;;-0.30
72278;BMP280;61204;49.980;8.358;2023-03-12T06:16:02;100193.66;;;-0.28
72278;BMP280;61204;49.980;8.358;2023-03-12T06:18:51;100198.75;;;-0.25
72278;BMP280;61204;49.980;8.358;2023-03-12T06:21:24;100209.53;;;-0.25
72278;BMP280;61204;49.980;8.358;2023-03-12T06:23:53;100205.84;;;-0.21
72278;BMP280;61204;49.980;8.358;2023-03-12T06:26:21;100208.97;;;-0.17
72278;BMP280;61204;49.980;8.358;2023-03-12T06:28:47;100216.31;;;-0.18
72278;BMP280;61204;49.980;8.358;2023-03-12T06:31:18;100210.66;;;-0.14
72278;BMP280;61204;49.980;8.358;2023-03-12T06:33:44;100205.28;;;-0.14
72278;BMP280;61204;49.980;8.358;2023-03-12T06:36:11;100202.78;;;-0.12
72278;BMP280;61204;49.980;8.358;2023-03-12T06:38:37;100207.16;;;-0.09
72278;BMP280;61204;49.980;8.358;2023-03-12T06:43:38;100198.22;;;0.02
72278;BMP280;61204;49.980;8.358;2023-03-12T06:46:06;100198.97;;;0.02
72278;BMP280;61204;49.980;8.358;2023-03-12T06:48:36;100195.75;;;0.04
72278;BMP280;61204;49.980;8.358;2023-03-12T06:51:05;100207.50;;;0.06
72278;BMP280;61204;49.980;8.358;2023-03-12T06:53:35;100211.59;;;0.13
72278;BMP280;61204;49.980;8.358;2023-03-12T06:56:01;100211.78;;;0.15
72278;BMP280;61204;49.980;8.358;2023-03-12T06:58:29;100199.50;;;0.19
72278;BMP280;61204;49.980;8.358;2023-03-12T07:00:55;100198.03;;;0.18
72278;BMP280;61204;49.980;8.358;2023-03-12T07:03:21;100193.44;;;0.13
72278;BMP280;61204;49.980;8.358;2023-03-12T07:05:48;100190.31;;;0.09
72278;BMP280;61204;49.980;8.358;2023-03-12T07:08:15;100188.56;;;0.12
72278;BMP280;61204;49.980;8.358;2023-03-12T07:10:43;100175.88;;;0.07
72278;BMP280;61204;49.980;8.358;2023-03-12T07:13:09;100168.75;;;0.09
72278;BMP280;61204;49.980;8.358;2023-03-12T07:15:35;100163.56;;;0.11
72278;BMP280;61204;49.980;8.358;2023-03-12T07:18:04;100161.94;;;0.03
72278;BMP280;61204;49.980;8.358;2023-03-12T07:20:35;100147.81;;;-0.04
72278;BMP280;61204;49.980;8.358;2023-03-12T07:23:02;100144.09;;;-0.01
72278;BMP280;61204;49.980;8.358;2023-03-12T07:25:29;100155.63;;;0.00
72278;BMP280;61204;49.980;8.358;2023-03-12T07:27:55;100156.78;;;0.05
72278;BMP280;61204;49.980;8.358;2023-03-12T07:30:20;100159.69;;;0.07
72278;BMP280;61204;49.980;8.358;2023-03-12T07:32:48;100162.47;;;0.01
72278;BMP280;61204;49.980;8.358;2023-03-12T07:35:13;100167.44;;;0.16
72278;BMP280;61204;49.980;8.358;2023-03-12T07:37:39;100155.19;;;0.15
72278;BMP280;61204;49.980;8.358;2023-03-12T07:40:04;100150.53;;;0.15
72278;BMP280;61204;49.980;8.358;2023-03-12T07:42:34;100138.72;;;0.18
72278;BMP280;61204;49.980;8.358;2023-03-12T07:45:00;100145.28;;;0.23
72278;BMP280;61204;49.980;8.358;2023-03-12T07:47:25;100132.44;;;0.10
72278;BMP280;61204;49.980;8.358;2023-03-12T07:49:51;100122.03;;;0.01
72278;BMP280;61204;49.980;8.358;2023-03-12T07:52:17;100105.91;;;-0.05
72278;BMP280;61204;49.980;8.358;2023-03-12T07:54:44;100108.69;;;-0.10
72278;BMP280;61204;49.980;8.358;2023-03-12T07:57:11;100116.25;;;-0.09
72278;BMP280;61204;49.980;8.358;2023-03-12T07:59:37;100121.53;;;0.03
72278;BMP280;61204;49.980;8.358;2023-03-12T08:02:02;100120.94;;;0.10
72278;BMP280;61204;49.980;8.358;2023-03-12T08:04:28;100119.63;;;0.16
72278;BMP280;61204;49.980;8.358;2023-03-12T08:06:53;100125.66;;;0.22
72278;BMP280;61204;49.980;8.358;2023-03-12T08:09:19;100129.56;;;0.27
72278;BMP280;61204;49.980;8.358;2023-03-12T08:11:44;100129.03;;;0.29
72278;BMP280;61204;49.980;8.358;2023-03-12T08:14:10;100125.09;;;0.30
72278;BMP280;61204;49.980;8.358;2023-03-12T08:16:35;100107.53;;;0.23
72278;BMP280;61204;49.980;8.358;2023-03-12T08:19:01;100122.69;;;0.26
72278;BMP280;61204;49.980;8.358;2023-03-12T08:21:26;100117.84;;;0.38
72278;BMP280;61204;49.980;8.358;2023-03-12T08:23:51;100112.44;;;0.38
72278;BMP280;61204;49.980;8.358;2023-03-12T08:26:17;100130.38;;;0.35
72278;BMP280;61204;49.980;8.358;2023-03-12T08:28:42;100130.53;;;0.43
72278;BMP280;61204;49.980;8.358;2023-03-12T08:31:10;100137.81;;;0.48
72278;BMP280;61204;49.980;8.358;2023-03-12T08:33:36;100139.91;;;0.55
72278;BMP280;61204;49.980;8.358;2023-03-12T08:36:05;100144.50;;;0.60
72278;BMP280;61204;49.980;8.358;2023-03-12T08:38:31;100144.63;;;0.68
72278;BMP280;61204;49.980;8.358;2023-03-12T08:40:57;100140.84;;;0.77
72278;BMP280;61204;49.980;8.358;2023-03-12T08:43:24;100130.25;;;0.79
72278;BMP280;61204;49.980;8.358;2023-03-12T08:45:57;100120.81;;;0.85
72278;BMP280;61204;49.980;8.358;2023-03-12T08:48:26;100107.09;;;0.83
72278;BMP280;61204;49.980;8.358;2023-03-12T08:50:54;100104.19;;;0.81
72278;BMP280;61204;49.980;8.358;2023-03-12T08:53:22;100103.59;;;0.88
72278;BMP280;61204;49.980;8.358;2023-03-12T08:55:50;100116.38;;;1.01
72278;BMP280;61204;49.980;8.358;2023-03-12T08:58:20;100107.38;;;0.98
72278;BMP280;61204;49.980;8.358;2023-03-12T09:00:47;100110.56;;;0.97
72278;BMP280;61204;49.980;8.358;2023-03-12T09:03:12;100113.72;;;1.14
72278;BMP280;61204;49.980;8.358;2023-03-12T09:05:39;100113.31;;;1.23
72278;BMP280;61204;49.980;8.358;2023-03-12T09:08:06;100121.81;;;1.28
72278;BMP280;61204;49.980;8.358;2023-03-12T09:10:32;100116.44;;;1.28
72278;BMP280;61204;49.980;8.358;2023-03-12T09:12:58;100119.13;;;1.28
72278;BMP280;61204;49.980;8.358;2023-03-12T09:15:24;100106.66;;;1.25
72278;BMP280;61204;49.980;8.358;2023-03-12T09:17:50;100104.38;;;1.15
72278;BMP280;61204;49.980;8.358;2023-03-12T09:20:15;100100.31;;;1.09
72278;BMP280;61204;49.980;8.358;2023-03-12T09:22:41;100090.41;;;0.98
72278;BMP280;61204;49.980;8.358;2023-03-12T09:25:07;100095.31;;;1.13
72278;BMP280;61204;49.980;8.358;2023-03-12T09:27:39;100073.84;;;1.07
72278;BMP280;61204;49.980;8.358;2023-03-12T09:30:10;100076.84;;;1.17
72278;BMP280;61204;49.980;8.358;2023-03-12T09:32:41;100084.81;;;1.36
72278;BMP280;61204;49.980;8.358;2023-03-12T09:35:09;100091.19;;;1.52
72278;BMP280;61204;49.980;8.358;2023-03-12T09:37:36;100075.88;;;1.67
72278;BMP280;61204;49.980;8.358;2023-03-12T09:40:01;100076.38;;;1.79
72278;BMP280;61204;49.980;8.358;2023-03-12T09:42:36;100078.28;;;1.92
72278;BMP280;61204;49.980;8.358;2023-03-12T09:45:23;100076.72;;;1.96
72278;BMP280;61204;49.980;8.358;2023-03-12T09:47:56;100076.47;;;2.08
72278;BMP280;61204;49.980;8.358;2023-03-12T09:50:29;100079.78;;;2.35
72278;BMP280;61204;49.980;8.358;2023-03-12T09:56:05;100110.56;;;2.66
72278;BMP280;61204;49.980;8.358;2023-03-12T09:58:38;100117.63;;;2.69
72278;BMP280;61204;49.980;8.358;2023-03-12T10:06:36;100124.94;;;2.82
72278;BMP280;61204;49.980;8.358;2023-03-12T10:23:40;100157.25;;;3.37
72278;BMP280;61204;49.980;8.358;2023-03-12T10:26:53;100152.72;;;3.32
72278;BMP280;61204;49.980;8.358;2023-03-12T10:29:23;100139.81;;;3.17
72278;BMP280;61204;49.980;8.358;2023-03-12T10:34:33;100129.69;;;3.46
72278;BMP280;61204;49.980;8.358;2023-03-12T10:37:28;100128.06;;;3.43
72278;BMP280;61204;49.980;8.358;2023-03-12T10:40:17;100123.56;;;3.53
72278;BMP280;61204;49.980;8.358;2023-03-12T10:42:47;100111.72;;;3.64
72278;BMP280;61204;49.980;8.358;2023-03-12T10:45:19;100104.41;;;3.95
72278;BMP280;61204;49.980;8.358;2023-03-12T10:48:06;100117.09;;;3.56
72278;BMP280;61204;49.980;8.358;2023-03-12T10:50:36;100108.88;;;3.85
72278;BMP280;61204;49.980;8.358;2023-03-12T10:53:37;100110.66;;;3.74
72278;BMP280;61204;49.980;8.358;2023-03-12T10:56:15;100104.03;;;4.06
72278;BMP280;61204;49.980;8.358;2023-03-12T10:58:45;100135.69;;;4.04
72278;BMP280;61204;49.980;8.358;2023-03-12T11:03:48;100130.84;;;4.17
72278;BMP280;61204;49.980;8.358;2023-03-12T11:06:27;100124.50;;;4.22
72278;BMP280;61204;49.980;8.358;2023-03-12T11:11:34;100122.66;;;4.02
72278;BMP280;61204;49.980;8.358;2023-03-12T11:14:07;100113.47;;;4.20
72278;BMP280;61204;49.980;8.358;2023-03-12T11:16:44;100112.19;;;4.06
72278;BMP280;61204;49.980;8.358;2023-03-12T11:19:14;100123.22;;;4.08
72278;BMP280;61204;49.980;8.358;2023-03-12T11:21:58;100113.16;;;4.39
72278;BMP280;61204;49.980;8.358;2023-03-12T11:24:27;100121.28;;;4.62
72278;BMP280;61204;49.980;8.358;2023-03-12T11:27:16;100134.31;;;4.56
72278;BMP280;61204;49.980;8.358;2023-03-12T11:29:56;100125.59;;;4.81
72278;BMP280;61204;49.980;8.358;2023-03-12T11:32:23;100130.66;;;4.84
72278;BMP280;61204;49.980;8.358;2023-03-12T11:34:57;100130.13;;;4.93
72278;BMP280;61204;49.980;8.358;2023-03-12T11:37:37;100127.44;;;4.93
72278;BMP280;61204;49.980;8.358;2023-03-12T11:52:04;100139.69;;;5.10
72278;BMP280;61204;49.980;8.358;2023-03-12T12:00:55;100128.97;;;5.75
72278;BMP280;61204;49.980;8.358;2023-03-12T12:03:50;100135.69;;;5.74
72278;BMP280;61204;49.980;8.358;2023-03-12T12:06:40;100132.53;;;5.85
72278;BMP280;61204;49.980;8.358;2023-03-12T12:26:12;100131.84;;;7.73
72278;BMP280;61204;49.980;8.358;2023-03-12T12:31:55;100135.09;;;7.89
72278;BMP280;61204;49.980;8.358;2023-03-12T12:34:38;100134.09;;;7.94
72278;BMP280;61204;49.980;8.358;2023-03-12T12:40:34;100141.41;;;8.28
72278;BMP280;61204;49.980;8.358;2023-03-12T12:43:25;100146.31;;;8.30
72278;BMP280;61204;49.980;8.358;2023-03-12T12:46:00;100137.56;;;8.51
72278;BMP280;61204;49.980;8.358;2023-03-12T12:51:07;100136.41;;;8.34
72278;BMP280;61204;49.980;8.358;2023-03-12T12:53:43;100149.44;;;8.26
72278;BMP280;61204;49.980;8.358;2023-03-12T12:56:37;100136.84;;;8.40
72278;BMP280;61204;49.980;8.358;2023-03-12T13:02:38;100140.00;;;8.37
72278;BMP280;61204;49.980;8.358;2023-03-12T13:05:24;100145.06;;;8.40
72278;BMP280;61204;49.980;8.358;2023-03-12T13:08:09;100131.59;;;8.71
72278;BMP280;61204;49.980;8.358;2023-03-12T13:11:44;100139.63;;;9.28
72278;BMP280;61204;49.980;8.358;2023-03-12T13:14:20;100125.84;;;10.28
72278;BMP280;61204;49.980;8.358;2023-03-12T13:17:34;100121.09;;;10.72
72278;BMP280;61204;49.980;8.358;2023-03-12T13:20:04;100120.50;;;10.73
72278;BMP280;61204;49.980;8.358;2023-03-12T13:25:33;100108.88;;;10.63
72278;BMP280;61204;49.980;8.358;2023-03-12T13:30:59;100092.66;;;9.82
72278;BMP280;61204;49.980;8.358;2023-03-12T13:33:51;100094.25;;;10.06
72278;BMP280;61204;49.980;8.358;2023-03-12T13:36:25;100106.88;;;10.64
72278;BMP280;61204;49.980;8.358;2023-03-12T13:41:32;100102.69;;;10.96
72278;BMP280;61204;49.980;8.358;2023-03-12T13:44:00;100106.88;;;11.08
72278;BMP280;61204;49.980;8.358;2023-03-12T13:49:24;100099.16;;;11.05
72278;BMP280;61204;49.980;8.358;2023-03-12T13:51:59;100104.09;;;11.41
72278;BMP280;61204;49.980;8.358;2023-03-12T13:54:32;100108.53;;;11.70
72278;BMP280;61204;49.980;8.358;2023-03-12T13:57:09;100114.00;;;11.93
72278;BMP280;61204;49.980;8.358;2023-03-12T13:59:56;100121.53;;;11.93
72278;BMP280;61204;49.980;8.358;2023-03-12T14:02:26;100133.38;;;11.95
72278;BMP280;61204;49.980;8.358;2023-03-12T14:05:04;100132.38;;;11.91
72278;BMP280;61204;49.980;8.358;2023-03-12T14:07:39;100131.31;;;11.72
72278;BMP280;61204;49.980;8.358;2023-03-12T14:13:38;100121.66;;;11.36
72278;BMP280;61204;49.980;8.358;2023-03-12T14:19:16;100108.78;;;10.94
72278;BMP280;61204;49.980;8.358;2023-03-12T14:21:48;100112.97;;;10.74
72278;BMP280;61204;49.980;8.358;2023-03-12T14:24:21;100104.88;;;10.76
72278;BMP280;61204;49.980;8.358;2023-03-12T14:26:52;100098.19;;;10.67
72278;BMP280;61204;49.980;8.358;2023-03-12T14:29:28;100082.72;;;10.72
72278;BMP280;61204;49.980;8.358;2023-03-12T14:32:05;100080.69;;;10.72
72278;BMP280;61204;49.980;8.358;2023-03-12T14:37:57;100071.69;;;10.60
72278;BMP280;61204;49.980;8.358;2023-03-12T14:43:32;100073.44;;;10.88
72278;BMP280;61204;49.980;8.358;2023-03-12T14:46:00;100075.53;;;11.11
72278;BMP280;61204;49.980;8.358;2023-03-12T14:48:39;100065.34;;;10.79
72278;BMP280;61204;49.980;8.358;2023-03-12T14:51:05;100074.16;;;10.89
72278;BMP280;61204;49.980;8.358;2023-03-12T14:53:33;100065.94;;;10.89
72278;BMP280;61204;49.980;8.358;2023-03-12T14:56:03;100066.78;;;10.92
72278;BMP280;61204;49.980;8.358;2023-03-12T14:58:35;100070.88;;;11.02
72278;BMP280;61204;49.980;8.358;2023-03-12T15:01:15;100070.03;;;11.11
72278;BMP280;61204;49.980;8.358;2023-03-12T15:03:46;100066.25;;;11.16
72278;BMP280;61204;49.980;8.358;2023-03-12T15:06:42;100059.66;;;11.22
72278;BMP280;61204;49.980;8.358;2023-03-12T15:09:17;100062.06;;;11.27
72278;BMP280;61204;49.980;8.358;2023-03-12T15:11:50;100063.75;;;11.32
72278;BMP280;61204;49.980;8.358;2023-03-12T15:14:26;100055.38;;;11.30
72278;BMP280;61204;49.980;8.358;2023-03-12T15:16:56;100048.94;;;11.26
72278;BMP280;61204;49.980;8.358;2023-03-12T15:19:25;100049.31;;;11.32
72278;BMP280;61204;49.980;8.358;2023-03-12T15:21:57;100045.13;;;11.31
72278;BMP280;61204;49.980;8.358;2023-03-12T15:24:24;100045.84;;;11.20
72278;BMP280;61204;49.980;8.358;2023-03-12T15:26:54;100049.31;;;11.20
72278;BMP280;61204;49.980;8.358;2023-03-12T15:29:23;100049.56;;;11.24
72278;BMP280;61204;49.980;8.358;2023-03-12T15:31:58;100054.19;;;11.22
72278;BMP280;61204;49.980;8.358;2023-03-12T15:34:29;100046.09;;;11.24
72278;BMP280;61204;49.980;8.358;2023-03-12T15:37:18;100052.78;;;11.21
72278;BMP280;61204;49.980;8.358;2023-03-12T15:39:52;100048.22;;;11.13
72278;BMP280;61204;49.980;8.358;2023-03-12T15:42:20;100045.81;;;11.08
72278;BMP280;61204;49.980;8.358;2023-03-12T15:44:50;100044.53;;;10.97
72278;BMP280;61204;49.980;8.358;2023-03-12T15:47:21;100038.84;;;10.83
72278;BMP280;61204;49.980;8.358;2023-03-12T15:49:52;100034.53;;;10.69
72278;BMP280;61204;49.980;8.358;2023-03-12T15:52:33;100025.34;;;10.64
72278;BMP280;61204;49.980;8.358;2023-03-12T15:57:44;100026.38;;;10.59
72278;BMP280;61204;49.980;8.358;2023-03-12T16:02:37;100025.09;;;10.60
72278;BMP280;61204;49.980;8.358;2023-03-12T16:05:11;100026.34;;;10.47
72278;BMP280;61204;49.980;8.358;2023-03-12T16:07:36;100033.13;;;10.46
72278;BMP280;61204;49.980;8.358;2023-03-12T16:10:03;100029.38;;;10.30
72278;BMP280;61204;49.980;8.358;2023-03-12T16:12:32;100022.97;;;10.16
72278;BMP280;61204;49.980;8.358;2023-03-12T16:14:58;100031.13;;;10.25
72278;BMP280;61204;49.980;8.358;2023-03-12T16:17:23;100019.84;;;10.10